createdAt,value
2022-10-16T00:02:23.623Z,100801.63
2022-10-16T00:04:51.271Z,100799.09
2022-10-16T00:07:18.915Z,100790.44
2022-10-16T00:09:47.962Z,100786.28
2022-10-16T00:12:15.549Z,100794.38
2022-10-16T00:14:45.062Z,100795.06
2022-10-16T00:17:12.658Z,100790.75
2022-10-16T00:19:40.331Z,100805.97
2022-10-16T00:22:07.951Z,100795.50
2022-10-16T00:24:35.565Z,100796.31
2022-10-16T00:27:04.717Z,100796.31
2022-10-16T00:29:32.343Z,100796.47
2022-10-16T00:31:59.990Z,100791.47
2022-10-16T00:34:27.650Z,100787.56
2022-10-16T00:36:55.291Z,100791.88
2022-10-16T00:39:23.267Z,100794.69
2022-10-16T00:41:50.901Z,100799.31
2022-10-16T00:44:45.870Z,100797.75
2022-10-16T00:47:15.572Z,100782.66
2022-10-16T00:49:43.389Z,100789.94
2022-10-16T00:52:12.067Z,100784.63
2022-10-16T00:54:39.715Z,100790.78
2022-10-16T00:57:08.293Z,100800.25
2022-10-16T00:59:38.664Z,100793.44
2022-10-16T01:02:10.334Z,100787.13
2022-10-16T01:04:40.588Z,100782.34
2022-10-16T01:07:14.832Z,100794.25
2022-10-16T01:09:51.369Z,100777.91
2022-10-16T01:12:24.514Z,100792.44
2022-10-16T01:14:56.799Z,100796.06
2022-10-16T01:17:33.340Z,100803.63
2022-10-16T01:20:07.447Z,100813.41
2022-10-16T01:22:40.964Z,100806.00
2022-10-16T01:25:14.167Z,100806.81
2022-10-16T01:27:44.601Z,100808.63
2022-10-16T01:30:15.594Z,100809.47
2022-10-16T01:32:44.546Z,100816.47
2022-10-16T01:35:14.332Z,100816.19
2022-10-16T01:37:49.022Z,100812.13
2022-10-16T01:40:18.628Z,100793.69
2022-10-16T01:42:50.842Z,100796.63
2022-10-16T01:45:21.105Z,100788.94
2022-10-16T01:47:49.942Z,100798.72
2022-10-16T01:50:19.582Z,100791.88
2022-10-16T01:52:49.204Z,100789.38
2022-10-16T01:55:20.821Z,100786.72
2022-10-16T01:57:51.614Z,100785.88
2022-10-16T02:00:21.272Z,100784.22
2022-10-16T02:02:51.732Z,100786.88
2022-10-16T02:05:24.458Z,100786.88
2022-10-16T02:07:52.138Z,100795.53
2022-10-16T02:10:20.426Z,100790.22
2022-10-16T02:12:52.219Z,100780.16
2022-10-16T02:15:19.981Z,100791.19
2022-10-16T02:17:47.598Z,100800.69
2022-10-16T02:20:15.290Z,100811.97
2022-10-16T02:22:46.230Z,100806.44
2022-10-16T02:25:18.820Z,100807.66
2022-10-16T02:27:52.696Z,100791.19
2022-10-16T02:30:24.146Z,100813.94
2022-10-16T02:32:52.434Z,100803.63
2022-10-16T02:35:22.520Z,100792.84
2022-10-16T02:37:51.311Z,100804.47
2022-10-16T02:40:22.850Z,100806.13
2022-10-16T02:42:55.497Z,100815.63
2022-10-16T02:45:23.520Z,100806.97
2022-10-16T02:47:51.196Z,100809.63
2022-10-16T02:50:19.025Z,100821.06
2022-10-16T02:52:46.663Z,100825.69
2022-10-16T02:55:14.298Z,100816.19
2022-10-16T02:57:42.298Z,100820.38
2022-10-16T03:00:15.121Z,100818.72
2022-10-16T03:02:43.006Z,100815.09
2022-10-16T03:05:11.437Z,100814.78
2022-10-16T03:07:39.096Z,100810.59
2022-10-16T03:10:07.517Z,100785.06
2022-10-16T03:12:35.191Z,100791.88
2022-10-16T03:15:02.891Z,100800.53
2022-10-16T03:17:32.213Z,100797.88
2022-10-16T03:19:59.929Z,100809.22
2022-10-16T03:22:27.572Z,100813.53
2022-10-16T03:24:55.469Z,100818.13
2022-10-16T03:27:23.257Z,100806.81
2022-10-16T03:29:51.042Z,100814.53
2022-10-16T03:32:19.398Z,100807.50
2022-10-16T03:34:48.423Z,100811.88
2022-10-16T03:37:16.035Z,100810.03
2022-10-16T03:39:43.676Z,100800.13
2022-10-16T03:42:11.298Z,100811.72
2022-10-16T03:44:38.924Z,100814.22
2022-10-16T03:47:06.592Z,100818.56
2022-10-16T03:49:34.218Z,100825.81
2022-10-16T03:52:03.245Z,100821.50
2022-10-16T03:54:30.840Z,100818.84
2022-10-16T03:56:58.465Z,100821.50
2022-10-16T03:59:26.054Z,100818.84
2022-10-16T04:01:53.724Z,100819.69
2022-10-16T04:04:21.334Z,100813.53
2022-10-16T04:06:48.912Z,100825.13
2022-10-16T04:09:17.960Z,100825.97
2022-10-16T04:11:45.532Z,100830.31
2022-10-16T04:14:13.164Z,100828.34
2022-10-16T04:16:40.783Z,100835.16
2022-10-16T04:19:08.465Z,100838.81
2022-10-16T04:21:36.188Z,100850.25
2022-10-16T04:24:03.861Z,100845.94
2022-10-16T04:26:32.882Z,100849.44
2022-10-16T04:29:00.599Z,100851.09
2022-10-16T04:31:28.616Z,100858.22
2022-10-16T04:33:56.210Z,100858.38
2022-10-16T04:36:26.771Z,100860.34
2022-10-16T04:38:56.850Z,100862.16
2022-10-16T04:41:24.488Z,100863.97
2022-10-16T04:43:53.433Z,100867.47
2022-10-16T04:46:21.089Z,100866.63
2022-10-16T04:48:48.730Z,100865.22
2022-10-16T04:51:16.430Z,100882.13
2022-10-16T04:53:44.092Z,100877.81
2022-10-16T04:56:11.736Z,100891.09
2022-10-16T04:58:39.347Z,100888.44
2022-10-16T05:01:08.372Z,100883.94
2022-10-16T05:03:36.065Z,100891.09
2022-10-16T05:06:05.030Z,100899.19
2022-10-16T05:08:32.622Z,100893.03
2022-10-16T05:11:00.588Z,100901.69
2022-10-16T05:13:28.224Z,100907.00
2022-10-16T05:15:55.836Z,100901.69
2022-10-16T05:18:24.841Z,100902.53
2022-10-16T05:20:52.489Z,100907.00
2022-10-16T05:23:20.116Z,100912.31
2022-10-16T05:25:54.491Z,100914.97
2022-10-16T05:28:22.129Z,100918.16
2022-10-16T05:30:49.772Z,100912.16
2022-10-16T05:33:17.905Z,100917.22
2022-10-16T05:35:47.469Z,100920.00
2022-10-16T05:38:15.248Z,100928.94
2022-10-16T05:40:42.913Z,100936.91
2022-10-16T05:43:10.634Z,100928.94
2022-10-16T05:45:38.253Z,100935.91
2022-10-16T05:48:06.530Z,100934.25
2022-10-16T05:50:34.223Z,100940.53
2022-10-16T05:53:03.252Z,100942.50
2022-10-16T05:55:30.883Z,100941.66
2022-10-16T05:57:58.450Z,100951.69
2022-10-16T06:00:26.051Z,100960.50
2022-10-16T06:02:53.802Z,100958.69
2022-10-16T06:05:21.446Z,100968.34
2022-10-16T06:07:48.988Z,100970.88
2022-10-16T06:10:18.304Z,100983.31
2022-10-16T06:12:45.908Z,100978.00
2022-10-16T06:15:13.524Z,100981.72
2022-10-16T06:17:41.160Z,100982.56
2022-10-16T06:20:09.295Z,100983.81
2022-10-16T06:22:37.535Z,100984.78
2022-10-16T06:25:06.412Z,100995.25
2022-10-16T06:27:35.448Z,101003.38
2022-10-16T06:30:04.746Z,101001.94
2022-10-16T06:32:32.426Z,101003.63
2022-10-16T06:35:00.120Z,101013.25
2022-10-16T06:37:29.167Z,101020.38
2022-10-16T06:39:56.967Z,101021.22
2022-10-16T06:42:24.920Z,101031.84
2022-10-16T06:44:54.349Z,101025.44
2022-10-16T06:47:21.961Z,101038.69
2022-10-16T06:49:53.434Z,101041.19
2022-10-16T06:52:22.094Z,101042.19
2022-10-16T06:54:49.737Z,101043.84
2022-10-16T06:57:17.635Z,101043.84
2022-10-16T06:59:47.064Z,101046.38
2022-10-16T07:02:16.392Z,101048.75
2022-10-16T07:04:44.001Z,101062.50
2022-10-16T07:07:11.592Z,101063.19
2022-10-16T07:09:39.244Z,101064.59
2022-10-16T07:12:06.939Z,101064.91
2022-10-16T07:14:34.610Z,101066.44
2022-10-16T07:17:02.361Z,101077.50
2022-10-16T07:19:34.248Z,101082.53
2022-10-16T07:22:02.528Z,101084.22
2022-10-16T07:24:30.199Z,101093.16
2022-10-16T07:26:57.838Z,101091.09
2022-10-16T07:29:25.467Z,101109.38
2022-10-16T07:31:53.179Z,101111.91
2022-10-16T07:34:22.557Z,101115.53
2022-10-16T07:36:51.926Z,101116.09
2022-10-16T07:39:19.862Z,101114.16
2022-10-16T07:41:47.500Z,101117.81
2022-10-16T07:44:15.440Z,101123.09
2022-10-16T07:46:43.080Z,101129.94
2022-10-16T07:49:11.332Z,101144.06
2022-10-16T07:51:40.277Z,101132.59
2022-10-16T07:54:10.403Z,101141.03
2022-10-16T07:56:39.972Z,101141.28
2022-10-16T07:59:10.743Z,101153.19
2022-10-16T08:01:38.593Z,101152.22
2022-10-16T08:04:07.366Z,101166.22
2022-10-16T08:06:37.894Z,101168.59
2022-10-16T08:09:05.751Z,101172.53
2022-10-16T08:11:35.196Z,101167.91
2022-10-16T08:14:02.910Z,101182.72
2022-10-16T08:16:30.638Z,101182.47
2022-10-16T08:18:58.331Z,101183.31
2022-10-16T08:21:26.017Z,101178.84
2022-10-16T08:23:58.139Z,101188.63
2022-10-16T08:26:27.083Z,101193.81
2022-10-16T08:28:57.085Z,101194.94
2022-10-16T08:31:25.094Z,101199.81
2022-10-16T08:33:53.382Z,101198.72
2022-10-16T08:36:21.180Z,101197.59
2022-10-16T08:38:50.817Z,101188.63
2022-10-16T08:41:34.780Z,101207.25
2022-10-16T08:44:16.242Z,101205.19
2022-10-16T08:46:50.571Z,101205.19
2022-10-16T08:49:18.911Z,101195.81
2022-10-16T08:51:47.497Z,101201.69
2022-10-16T08:54:25.025Z,101198.31
2022-10-16T08:56:52.688Z,101197.94
2022-10-16T08:59:21.830Z,101205.78
2022-10-16T09:01:52.204Z,101215.28
2022-10-16T09:04:44.275Z,101218.38
2022-10-16T09:07:17.364Z,101213.06
2022-10-16T09:09:58.598Z,101224.25
2022-10-16T09:12:31.296Z,101238.66
2022-10-16T09:15:05.462Z,101244.41
2022-10-16T09:17:40.304Z,101242.19
2022-10-16T09:20:29.615Z,101247.50
2022-10-16T09:23:10.119Z,101255.34
2022-10-16T09:25:41.102Z,101256.72
2022-10-16T09:28:10.905Z,101260.66
2022-10-16T09:30:40.516Z,101259.53
2022-10-16T09:33:09.162Z,101268.75
2022-10-16T09:35:39.802Z,101269.59
2022-10-16T09:38:07.860Z,101269.47
2022-10-16T09:40:37.752Z,101271.72
2022-10-16T09:43:17.146Z,101280.81
2022-10-16T09:45:56.227Z,101287.53
2022-10-16T09:48:24.450Z,101282.91
2022-10-16T09:50:59.857Z,101288.91
2022-10-16T09:53:38.303Z,101284.16
2022-10-16T09:56:10.359Z,101291.44
2022-10-16T09:58:44.419Z,101301.22
2022-10-16T10:01:15.341Z,101307.84
2022-10-16T10:03:44.575Z,101313.84
2022-10-16T10:06:21.460Z,101303.47
2022-10-16T10:08:57.423Z,101311.72
2022-10-16T10:11:56.029Z,101310.06
2022-10-16T10:14:26.485Z,101311.72
2022-10-16T10:17:08.952Z,101314.13
2022-10-16T10:19:40.915Z,101318.50
2022-10-16T10:22:18.345Z,101311.19
2022-10-16T10:24:46.518Z,101313.28
2022-10-16T10:27:17.896Z,101320.41
2022-10-16T10:29:50.972Z,101323.88
2022-10-16T10:32:26.392Z,101311.53
2022-10-16T10:35:02.995Z,101318.50
2022-10-16T10:37:43.136Z,101311.63
2022-10-16T10:40:18.879Z,101315.13
2022-10-16T10:42:50.335Z,101324.81
2022-10-16T10:45:28.356Z,101324.66
2022-10-16T10:48:12.571Z,101323.09
2022-10-16T10:50:43.825Z,101334.47
2022-10-16T10:53:20.882Z,101326.16
2022-10-16T10:55:54.413Z,101329.53
2022-10-16T10:58:35.110Z,101326.84
2022-10-16T11:01:06.856Z,101324.84
2022-10-16T11:03:47.291Z,101326.09
2022-10-16T11:06:17.454Z,101333.22
2022-10-16T11:08:48.771Z,101334.31
2022-10-16T11:11:19.570Z,101332.34
2022-10-16T11:13:54.131Z,101338.91
2022-10-16T11:16:25.070Z,101340.47
2022-10-16T11:19:00.031Z,101339.31
2022-10-16T11:21:31.157Z,101333.97
2022-10-16T11:24:02.271Z,101335.22
2022-10-16T11:26:33.795Z,101331.56
2022-10-16T11:29:02.545Z,101345.03
2022-10-16T11:31:34.461Z,101343.34
2022-10-16T11:34:08.333Z,101344.84
2022-10-16T11:36:40.568Z,101357.22
2022-10-16T11:39:17.537Z,101355.47
2022-10-16T11:41:48.897Z,101345.19
2022-10-16T11:44:36.888Z,101363.75
2022-10-16T11:47:33.673Z,101364.28
2022-10-16T11:50:05.134Z,101365.88
2022-10-16T11:52:37.789Z,101354.59
2022-10-16T11:55:08.520Z,101368.94
2022-10-16T11:57:40.471Z,101363.34
2022-10-16T12:00:12.009Z,101369.06
2022-10-16T12:02:50.545Z,101377.78
2022-10-16T12:05:27.022Z,101368.16
2022-10-16T12:08:04.633Z,101375.56
2022-10-16T12:13:32.134Z,101376.34
2022-10-16T12:16:07.761Z,101367.63
2022-10-16T12:18:35.467Z,101381.91
2022-10-16T12:21:07.549Z,101389.06
2022-10-16T12:23:35.605Z,101388.09
2022-10-16T12:26:03.721Z,101393.13
2022-10-16T12:28:33.693Z,101392.13
2022-10-16T12:31:02.765Z,101393.63
2022-10-16T12:33:31.963Z,101375.78
2022-10-16T12:36:00.974Z,101388.53
2022-10-16T12:38:32.640Z,101379.31
2022-10-16T12:41:02.297Z,101393.59
2022-10-16T12:43:43.239Z,101394.94
2022-10-16T12:46:37.698Z,101406.31
2022-10-16T12:49:25.499Z,101398.00
2022-10-16T12:51:53.477Z,101395.84
2022-10-16T12:54:26.720Z,101392.72
2022-10-16T12:57:04.210Z,101395.25
2022-10-16T12:59:37.693Z,101403.09
2022-10-16T13:02:20.262Z,101404.94
2022-10-16T13:05:15.242Z,101409.44
2022-10-16T13:07:51.508Z,101409.16
2022-10-16T13:10:25.655Z,101408.16
2022-10-16T13:13:22.742Z,101413.59
2022-10-16T13:16:00.944Z,101406.88
2022-10-16T13:18:32.973Z,101413.03
2022-10-16T13:21:13.497Z,101416.94
2022-10-16T13:26:24.272Z,101419.16
2022-10-16T13:28:52.017Z,101420.28
2022-10-16T13:31:22.105Z,101410.91
2022-10-16T13:33:53.696Z,101430.97
2022-10-16T13:36:23.505Z,101427.47
2022-10-16T13:38:51.152Z,101426.97
2022-10-16T13:41:21.263Z,101426.13
2022-10-16T13:43:50.988Z,101418.25
2022-10-16T13:46:20.923Z,101431.47
2022-10-16T13:48:58.837Z,101425.97
2022-10-16T13:51:27.075Z,101427.63
2022-10-16T13:53:54.817Z,101429.31
2022-10-16T13:56:25.287Z,101436.66
2022-10-16T13:59:00.926Z,101435.81
2022-10-16T14:01:32.671Z,101442.84
2022-10-16T14:04:06.140Z,101446.34
2022-10-16T14:06:34.722Z,101443.34
2022-10-16T14:09:04.551Z,101444.06
2022-10-16T14:11:34.078Z,101444.72
2022-10-16T14:14:03.527Z,101448.41
2022-10-16T14:16:32.358Z,101445.06
2022-10-16T14:19:02.386Z,101454.91
2022-10-16T14:21:30.541Z,101450.69
2022-10-16T14:23:58.492Z,101440.00
2022-10-16T14:26:28.135Z,101444.22
2022-10-16T14:29:13.817Z,101452.06
2022-10-16T14:31:41.738Z,101452.91
2022-10-16T14:34:26.443Z,101451.75
2022-10-16T14:36:54.116Z,101452.91
2022-10-16T14:39:23.171Z,101448.34
2022-10-16T14:41:52.535Z,101454.19
2022-10-16T14:44:24.620Z,101460.53
2022-10-16T14:46:52.213Z,101462.53
2022-10-16T14:49:21.316Z,101466.38
2022-10-16T14:51:49.141Z,101465.97
2022-10-16T14:54:18.505Z,101467.38
2022-10-16T14:56:49.907Z,101468.06
2022-10-16T14:59:30.168Z,101452.50
2022-10-16T15:01:58.206Z,101458.84
2022-10-16T15:04:25.954Z,101465.47
2022-10-16T15:06:53.596Z,101464.97
2022-10-16T15:09:21.258Z,101466.06
2022-10-16T15:11:48.914Z,101462.72
2022-10-16T15:14:16.573Z,101461.88
2022-10-16T15:16:46.820Z,101458.69
2022-10-16T15:19:14.433Z,101462.50
2022-10-16T15:21:42.119Z,101463.63
2022-10-16T15:24:11.749Z,101478.28
2022-10-16T15:26:39.416Z,101471.41
2022-10-16T15:29:07.133Z,101478.91
2022-10-16T15:31:34.864Z,101474.69
2022-10-16T15:34:05.239Z,101472.31
2022-10-16T15:36:34.863Z,101474.00
2022-10-16T15:39:02.514Z,101459.13
2022-10-16T15:41:30.273Z,101462.91
2022-10-16T15:43:58.124Z,101464.91
2022-10-16T15:46:26.588Z,101455.38
2022-10-16T15:48:58.694Z,101448.63
2022-10-16T15:51:30.223Z,101467.03
2022-10-16T15:53:57.973Z,101464.97
2022-10-16T15:56:26.489Z,101468.63
2022-10-16T15:58:54.737Z,101461.88
2022-10-16T16:01:22.676Z,101465.03
2022-10-16T16:03:54.985Z,101462.78
2022-10-16T16:06:23.802Z,101468.44
2022-10-16T16:08:52.878Z,101461.69
2022-10-16T16:11:21.174Z,101468.19
2022-10-16T16:13:48.791Z,101465.78
2022-10-16T16:16:17.731Z,101467.91
2022-10-16T16:18:45.941Z,101461.31
2022-10-16T16:21:14.527Z,101481.13
2022-10-16T16:23:42.143Z,101487.56
2022-10-16T16:26:13.594Z,101485.34
2022-10-16T16:28:42.193Z,101479.19
2022-10-16T16:31:10.372Z,101495.75
2022-10-16T16:33:38.035Z,101489.03
2022-10-16T16:36:11.550Z,101499.16
2022-10-16T16:38:42.317Z,101512.06
2022-10-16T16:41:15.278Z,101516.16
2022-10-16T16:43:43.509Z,101518.97
2022-10-16T16:46:11.637Z,101501.56
2022-10-16T16:48:39.329Z,101515.19
2022-10-16T16:51:07.156Z,101517.16
2022-10-16T16:53:35.495Z,101508.47
2022-10-16T16:56:04.891Z,101513.09
2022-10-16T16:58:34.392Z,101520.69
2022-10-16T17:01:19.413Z,101520.25
2022-10-16T17:03:50.655Z,101516.47
2022-10-16T17:06:20.750Z,101519.28
2022-10-16T17:08:49.239Z,101525.59
2022-10-16T17:11:18.611Z,101525.59
2022-10-16T17:13:49.954Z,101523.06
2022-10-16T17:16:20.875Z,101521.41
2022-10-16T17:18:48.485Z,101537.66
2022-10-16T17:21:17.451Z,101546.91
2022-10-16T17:23:45.057Z,101554.22
2022-10-16T17:26:14.421Z,101560.66
2022-10-16T17:28:42.568Z,101567.94
2022-10-16T17:31:13.565Z,101563.03
2022-10-16T17:33:41.437Z,101569.34
2022-10-16T17:36:10.012Z,101565.97
2022-10-16T17:38:37.716Z,101563.44
2022-10-16T17:41:13.079Z,101553.63
2022-10-16T17:43:40.767Z,101545.78
2022-10-16T17:46:08.469Z,101553.88
2022-10-16T17:48:40.093Z,101551.22
2022-10-16T17:51:08.573Z,101546.88
2022-10-16T17:53:36.603Z,101557.41
2022-10-16T17:56:05.675Z,101543.38
2022-10-16T17:58:33.738Z,101539.00
2022-10-16T18:01:01.638Z,101531.16
2022-10-16T18:03:29.416Z,101531.41
2022-10-16T18:05:58.477Z,101537.63
2022-10-16T18:08:28.697Z,101544.88
2022-10-16T18:10:56.843Z,101564.50
2022-10-16T18:13:24.572Z,101568.31
2022-10-16T18:16:00.646Z,101567.59
2022-10-16T18:18:29.706Z,101570.06
2022-10-16T18:20:59.801Z,101569.69
2022-10-16T18:23:28.080Z,101572.47
2022-10-16T18:25:56.196Z,101564.50
2022-10-16T18:28:24.102Z,101558.47
2022-10-16T18:30:58.192Z,101552.31
2022-10-16T18:33:26.306Z,101551.44
2022-10-16T18:35:54.131Z,101553.25
2022-10-16T18:38:23.559Z,101548.75
2022-10-16T18:40:51.174Z,101547.94
2022-10-16T18:43:18.870Z,101547.09
2022-10-16T18:45:56.637Z,101555.22
2022-10-16T18:48:24.412Z,101560.00
2022-10-16T18:50:52.357Z,101563.63
2022-10-16T18:53:20.477Z,101566.69
2022-10-16T18:55:54.078Z,101581.53
2022-10-16T18:58:21.740Z,101586.88
2022-10-16T19:00:49.371Z,101581.53
2022-10-16T19:03:18.483Z,101580.56
2022-10-16T19:05:46.831Z,101580.84
2022-10-16T19:08:14.826Z,101577.91
2022-10-16T19:10:42.595Z,101575.25
2022-10-16T19:13:11.630Z,101576.22
2022-10-16T19:15:49.699Z,101575.38
2022-10-16T19:18:27.032Z,101577.34
2022-10-16T19:20:54.931Z,101576.75
2022-10-16T19:23:22.925Z,101578.72
2022-10-16T19:25:50.679Z,101583.19
2022-10-16T19:28:19.823Z,101579.56
2022-10-16T19:30:48.462Z,101592.03
2022-10-16T19:33:16.076Z,101602.69
2022-10-16T19:35:43.675Z,101613.34
2022-10-16T19:38:11.356Z,101624.13
2022-10-16T19:40:39.033Z,101630.56
2022-10-16T19:43:06.710Z,101635.75
2022-10-16T19:45:36.153Z,101633.22
2022-10-16T19:48:04.050Z,101638.41
2022-10-16T19:50:31.677Z,101643.75
2022-10-16T19:52:59.297Z,101646.41
2022-10-16T19:55:26.890Z,101651.59
2022-10-16T19:57:54.500Z,101648.09
2022-10-16T20:00:22.147Z,101640.94
2022-10-16T20:02:51.103Z,101642.75
2022-10-16T20:05:18.739Z,101651.59
2022-10-16T20:07:46.326Z,101647.94
2022-10-16T20:10:14.242Z,101638.13
2022-10-16T20:12:42.726Z,101638.97
2022-10-16T20:15:11.275Z,101641.78
2022-10-16T20:17:38.920Z,101627.63
2022-10-16T20:20:08.873Z,101615.28
2022-10-16T20:22:36.496Z,101610.09
2022-10-16T20:25:08.447Z,101610.94
2022-10-16T20:27:37.808Z,101609.28
2022-10-16T20:30:05.958Z,101608.16
2022-10-16T20:32:33.561Z,101615.28
2022-10-16T20:35:04.302Z,101614.31
2022-10-16T20:37:36.130Z,101605.50
2022-10-16T20:40:03.767Z,101614.31
2022-10-16T20:42:31.381Z,101617.97
2022-10-16T20:44:58.981Z,101620.47
2022-10-16T20:47:26.810Z,101600.53
2022-10-16T20:49:54.627Z,101614.59
2022-10-16T20:52:22.234Z,101618.25
2022-10-16T20:54:51.328Z,101627.16
2022-10-16T20:57:18.965Z,101631.66
2022-10-16T20:59:46.922Z,101642.19
2022-10-16T21:02:14.723Z,101637.81
2022-10-16T21:04:42.473Z,101625.34
2022-10-16T21:07:10.796Z,101615.44
2022-10-16T21:09:38.937Z,101627.75
2022-10-16T21:12:08.003Z,101620.63
2022-10-16T21:14:42.293Z,101622.44
2022-10-16T21:17:14.012Z,101610.94
2022-10-16T21:19:41.567Z,101603.81
2022-10-16T21:22:09.384Z,101590.63
2022-10-16T21:24:37.711Z,101575.63
2022-10-16T21:27:05.567Z,101565.25
2022-10-16T21:29:34.922Z,101567.19
2022-10-16T21:32:02.854Z,101584.28
2022-10-16T21:34:30.471Z,101583.44
2022-10-16T21:36:58.098Z,101585.38
2022-10-16T21:39:25.859Z,101584.41
2022-10-16T21:41:53.479Z,101583.56
2022-10-16T21:44:21.197Z,101595.06
2022-10-16T21:46:51.806Z,101596.63
2022-10-16T21:49:20.329Z,101583.19
2022-10-16T21:51:49.842Z,101569.41
2022-10-16T21:54:19.401Z,101581.06
2022-10-16T21:56:47.209Z,101572.97
2022-10-16T21:59:15.580Z,101572.09
2022-10-16T22:01:43.978Z,101578.41
2022-10-16T22:04:13.700Z,101583.75
2022-10-16T22:06:41.590Z,101573.94
2022-10-16T22:09:09.514Z,101573.94
2022-10-16T22:11:38.259Z,101575.63
2022-10-16T22:14:06.806Z,101565.00
2022-10-16T22:16:34.834Z,101567.75
2022-10-16T22:19:06.960Z,101570.03
2022-10-16T22:21:37.434Z,101570.88
2022-10-16T22:24:06.058Z,101567.22
2022-10-16T22:26:34.202Z,101561.91
2022-10-16T22:29:01.989Z,101561.06
2022-10-16T22:31:29.701Z,101558.41
2022-10-16T22:33:58.293Z,101556.72
2022-10-16T22:36:26.493Z,101548.72
2022-10-16T22:38:55.611Z,101549.72
2022-10-16T22:41:24.631Z,101546.47
2022-10-16T22:43:52.661Z,101539.47
2022-10-16T22:46:22.068Z,101539.88
2022-10-16T22:48:49.700Z,101546.75
2022-10-16T22:51:17.669Z,101544.94
2022-10-16T22:53:45.662Z,101535.66
2022-10-16T22:56:15.914Z,101537.22
2022-10-16T22:58:44.248Z,101538.31
2022-10-16T23:01:14.078Z,101531.31
2022-10-16T23:03:41.723Z,101526.97
2022-10-16T23:06:09.393Z,101527.94
2022-10-16T23:08:37.121Z,101536.91
2022-10-16T23:11:07.334Z,101531.72
2022-10-16T23:13:38.995Z,101530.00
2022-10-16T23:16:07.679Z,101515.31
2022-10-16T23:18:35.852Z,101518.94
2022-10-16T23:21:06.135Z,101506.88
2022-10-16T23:23:35.607Z,101511.50
2022-10-16T23:26:03.510Z,101516.13
2022-10-16T23:28:32.188Z,101514.44
2022-10-16T23:31:01.449Z,101513.00
2022-10-16T23:33:29.069Z,101516.66
2022-10-16T23:35:56.702Z,101524.63
2022-10-16T23:38:24.362Z,101525.47
2022-10-16T23:40:51.996Z,101532.34
2022-10-16T23:43:19.630Z,101530.66
2022-10-16T23:45:47.273Z,101534.03
2022-10-16T23:48:16.245Z,101541.31
2022-10-16T23:50:43.955Z,101527.00
2022-10-16T23:53:11.635Z,101520.28
2022-10-16T23:55:39.250Z,101537.66
2022-10-16T23:58:06.890Z,101528.13
